createdAt,value
2023-03-22T00:01:24.973Z,4.03
2023-03-22T00:03:52.318Z,4.70
2023-03-22T00:06:19.338Z,3.63
2023-03-22T00:08:50.570Z,3.42
2023-03-22T00:11:17.937Z,3.80
2023-03-22T00:13:46.869Z,3.75
2023-03-22T00:16:14.851Z,3.60
2023-03-22T00:18:41.733Z,3.38
2023-03-22T00:21:13.352Z,3.72
2023-03-22T00:23:40.790Z,3.67
2023-03-22T00:26:08.567Z,3.40
2023-03-22T00:28:36.564Z,3.83
2023-03-22T00:31:05.274Z,3.40
2023-03-22T00:33:33.403Z,3.10
2023-03-22T00:36:08.652Z,3.58
2023-03-22T00:38:42.942Z,3.20
2023-03-22T00:41:18.958Z,3.53
2023-03-22T00:43:47.071Z,3.70
2023-03-22T00:46:15.277Z,3.85
2023-03-22T00:48:43.384Z,3.42
2023-03-22T00:51:10.811Z,3.85
2023-03-22T00:53:37.620Z,3.30
2023-03-22T00:56:05.630Z,3.85
2023-03-22T00:58:41.407Z,3.60
2023-03-22T01:01:08.221Z,3.55
2023-03-22T01:03:35.046Z,3.35
2023-03-22T01:06:01.853Z,3.15
2023-03-22T01:08:33.221Z,3.05
2023-03-22T01:11:01.162Z,3.55
2023-03-22T01:13:27.956Z,3.70
2023-03-22T01:15:54.416Z,4.13
2023-03-22T01:18:20.855Z,3.58
2023-03-22T01:20:47.435Z,3.22
2023-03-22T01:23:13.929Z,3.33
2023-03-22T01:25:40.873Z,3.40
2023-03-22T01:28:08.655Z,3.45
2023-03-22T01:30:35.768Z,3.00
2023-03-22T01:33:02.823Z,3.53
2023-03-22T01:35:33.149Z,3.55
2023-03-22T01:37:59.757Z,3.80
2023-03-22T01:40:27.521Z,3.88
2023-03-22T01:42:55.230Z,3.35
2023-03-22T01:45:22.426Z,3.67
2023-03-22T01:47:54.874Z,3.22
2023-03-22T01:50:22.978Z,3.40
2023-03-22T01:52:52.128Z,3.53
2023-03-22T01:55:26.009Z,3.38
2023-03-22T01:58:05.460Z,3.70
2023-03-22T02:00:41.274Z,3.58
2023-03-22T02:03:37.073Z,3.22
2023-03-22T02:06:04.351Z,4.00
2023-03-22T02:08:32.375Z,3.67
2023-03-22T02:11:03.247Z,3.40
2023-03-22T02:14:09.736Z,4.03
2023-03-22T02:17:06.803Z,3.42
2023-03-22T02:20:13.326Z,3.50
2023-03-22T02:23:00.764Z,4.00
2023-03-22T02:25:40.399Z,3.65
2023-03-22T02:28:29.341Z,3.78
2023-03-22T02:31:14.041Z,3.78
2023-03-22T02:34:15.530Z,3.45
2023-03-22T02:36:58.303Z,3.63
2023-03-22T02:39:35.300Z,3.55
2023-03-22T02:42:17.579Z,3.70
2023-03-22T02:45:00.383Z,3.80
2023-03-22T02:47:38.551Z,3.40
2023-03-22T02:50:28.495Z,3.38
2023-03-22T02:53:12.842Z,3.67
2023-03-22T02:55:51.168Z,3.35
2023-03-22T02:58:22.865Z,3.50
2023-03-22T03:00:54.423Z,3.22
2023-03-22T03:03:25.486Z,3.28
2023-03-22T03:05:55.851Z,3.03
2023-03-22T03:08:24.902Z,2.72
2023-03-22T03:10:53.272Z,2.90
2023-03-22T03:13:20.005Z,3.08
2023-03-22T03:15:52.623Z,3.60
2023-03-22T03:18:29.584Z,2.97
2023-03-22T03:21:30.233Z,3.17
2023-03-22T03:24:36.618Z,2.97
2023-03-22T03:27:12.821Z,2.95
2023-03-22T03:30:02.886Z,2.67
2023-03-22T03:32:52.448Z,2.88
2023-03-22T03:35:27.215Z,3.08
2023-03-22T03:37:59.197Z,2.70
2023-03-22T03:40:35.183Z,2.75
2023-03-22T03:43:04.703Z,2.60
2023-03-22T03:45:31.160Z,2.38
2023-03-22T03:48:01.007Z,2.85
2023-03-22T03:50:28.008Z,2.97
2023-03-22T03:52:56.054Z,3.03
2023-03-22T03:55:24.087Z,3.95
2023-03-22T03:57:50.792Z,3.72
2023-03-22T04:00:17.975Z,4.10
2023-03-22T04:03:06.285Z,3.65
2023-03-22T04:05:45.824Z,3.80
2023-03-22T04:08:12.522Z,3.83
2023-03-22T04:10:40.685Z,3.47
2023-03-22T04:13:07.371Z,3.88
2023-03-22T04:15:33.904Z,3.67
2023-03-22T04:18:03.744Z,3.67
2023-03-22T04:20:31.536Z,3.50
2023-03-22T04:22:58.070Z,3.67
2023-03-22T04:25:29.815Z,4.10
2023-03-22T04:28:04.161Z,4.28
2023-03-22T04:30:36.361Z,4.20
2023-03-22T04:33:22.783Z,4.10
2023-03-22T04:36:10.331Z,3.85
2023-03-22T04:38:49.449Z,4.07
2023-03-22T04:41:20.414Z,3.58
2023-03-22T04:43:50.921Z,3.78
2023-03-22T04:46:17.937Z,3.60
2023-03-22T04:48:50.850Z,3.70
2023-03-22T04:51:18.108Z,3.83
2023-03-22T04:54:00.369Z,3.60
2023-03-22T04:56:27.045Z,4.10
2023-03-22T04:58:54.178Z,4.15
2023-03-22T05:01:20.654Z,4.40
2023-03-22T05:03:54.133Z,3.53
2023-03-22T05:06:22.616Z,4.10
2023-03-22T05:09:05.986Z,4.07
2023-03-22T05:11:32.484Z,4.05
2023-03-22T05:14:13.053Z,3.92
2023-03-22T05:16:40.740Z,3.63
2023-03-22T05:19:13.889Z,4.20
2023-03-22T05:21:44.151Z,3.38
2023-03-22T05:24:11.563Z,4.00
2023-03-22T05:26:42.298Z,4.70
2023-03-22T05:29:11.096Z,4.40
2023-03-22T05:32:00.747Z,4.20
2023-03-22T05:34:35.257Z,6.38
2023-03-22T05:37:10.207Z,5.85
2023-03-22T05:39:47.676Z,7.05
2023-03-22T05:42:14.271Z,10.15
2023-03-22T05:44:40.919Z,8.25
2023-03-22T05:47:11.489Z,7.65
2023-03-22T05:49:45.599Z,8.85
2023-03-22T05:52:12.303Z,8.98
2023-03-22T05:54:56.743Z,8.55
2023-03-22T05:57:23.288Z,8.90
2023-03-22T05:59:49.815Z,8.60
2023-03-22T06:02:23.720Z,7.63
2023-03-22T06:04:50.302Z,10.00
2023-03-22T06:07:18.204Z,10.35
2023-03-22T06:09:50.142Z,10.02
2023-03-22T06:12:24.719Z,8.68
2023-03-22T06:15:08.822Z,8.40
2023-03-22T06:17:35.502Z,8.93
2023-03-22T06:20:11.842Z,7.80
2023-03-22T06:22:41.319Z,7.30
2023-03-22T06:25:09.362Z,6.00
2023-03-22T06:27:40.499Z,4.70
2023-03-22T06:30:08.150Z,4.65
2023-03-22T06:32:45.912Z,5.47
2023-03-22T06:35:14.213Z,4.93
2023-03-22T06:37:40.688Z,4.72
2023-03-22T06:40:08.989Z,4.40
2023-03-22T06:42:35.801Z,4.65
2023-03-22T06:45:08.650Z,4.53
2023-03-22T06:47:37.746Z,4.10
2023-03-22T06:50:04.387Z,4.22
2023-03-22T06:52:50.818Z,3.97
2023-03-22T06:55:17.653Z,3.95
2023-03-22T06:57:44.095Z,4.38
2023-03-22T07:00:11.204Z,7.05
2023-03-22T07:02:37.688Z,3.85
2023-03-22T07:05:28.129Z,4.30
2023-03-22T07:07:54.691Z,3.72
2023-03-22T07:10:21.328Z,3.75
2023-03-22T07:12:48.643Z,3.30
2023-03-22T07:15:17.576Z,3.55
2023-03-22T07:18:04.417Z,3.50
2023-03-22T07:20:36.754Z,3.60
2023-03-22T07:23:04.569Z,3.63
2023-03-22T07:25:35.478Z,3.42
2023-03-22T07:28:16.268Z,3.42
2023-03-22T07:30:43.645Z,3.28
2023-03-22T07:33:11.169Z,3.33
2023-03-22T07:35:39.755Z,3.35
2023-03-22T07:38:06.509Z,3.03
2023-03-22T07:40:33.610Z,3.05
2023-03-22T07:43:00.411Z,3.53
2023-03-22T07:45:57.997Z,3.08
2023-03-22T07:48:43.159Z,3.28
2023-03-22T07:51:28.138Z,5.05
2023-03-22T07:53:54.584Z,10.77
2023-03-22T07:56:21.181Z,3.97
2023-03-22T07:58:47.628Z,3.17
2023-03-22T08:01:14.153Z,2.30
2023-03-22T08:04:03.589Z,1.70
2023-03-22T08:06:49.053Z,1.98
2023-03-22T08:09:16.354Z,2.13
2023-03-22T08:11:42.891Z,2.30
2023-03-22T08:14:09.722Z,2.20
2023-03-22T08:16:38.476Z,1.90
2023-03-22T08:19:05.959Z,1.90
2023-03-22T08:21:36.213Z,1.80
2023-03-22T08:24:04.119Z,1.60
2023-03-22T08:26:39.592Z,1.80
2023-03-22T08:29:14.832Z,1.55
2023-03-22T08:31:46.937Z,1.83
2023-03-22T08:34:13.364Z,17.73
2023-03-22T08:36:39.801Z,3.40
2023-03-22T08:39:08.315Z,2.00
2023-03-22T08:41:45.884Z,1.77
2023-03-22T08:44:12.899Z,1.50
2023-03-22T08:46:40.262Z,1.85
2023-03-22T08:49:06.847Z,1.98
2023-03-22T08:51:39.069Z,1.60
2023-03-22T08:54:13.627Z,1.75
2023-03-22T08:57:19.218Z,1.80
2023-03-22T08:59:58.789Z,1.83
2023-03-22T09:02:33.366Z,1.75
2023-03-22T09:05:00.597Z,1.90
2023-03-22T09:07:27.752Z,2.20
2023-03-22T09:10:09.677Z,1.50
2023-03-22T09:12:39.337Z,1.20
2023-03-22T09:15:07.414Z,1.55
2023-03-22T09:17:36.349Z,1.30
2023-03-22T09:20:12.504Z,1.23
2023-03-22T09:22:41.825Z,1.20
2023-03-22T09:25:12.524Z,1.48
2023-03-22T09:27:41.959Z,1.10
2023-03-22T09:30:09.185Z,1.38
2023-03-22T09:32:35.904Z,1.40
2023-03-22T09:35:04.262Z,1.23
2023-03-22T09:37:39.192Z,1.25
2023-03-22T09:40:07.792Z,1.40
2023-03-22T09:42:47.324Z,1.55
2023-03-22T09:45:20.503Z,1.60
2023-03-22T09:47:51.078Z,1.42
2023-03-22T09:50:23.701Z,1.55
2023-03-22T09:52:51.258Z,1.30
2023-03-22T09:55:30.326Z,1.10
2023-03-22T09:58:13.684Z,1.30
2023-03-22T10:00:51.191Z,1.25
2023-03-22T10:03:42.489Z,1.15
2023-03-22T10:06:12.391Z,1.20
2023-03-22T10:08:54.110Z,1.38
2023-03-22T10:11:57.282Z,1.20
2023-03-22T10:14:36.928Z,1.50
2023-03-22T10:17:08.784Z,1.55
2023-03-22T10:19:47.129Z,1.27
2023-03-22T10:22:16.958Z,1.20
2023-03-22T10:24:46.820Z,1.30
2023-03-22T10:27:19.574Z,1.23
2023-03-22T10:29:51.145Z,1.00
2023-03-22T10:32:22.480Z,1.20
2023-03-22T10:34:49.428Z,1.30
2023-03-22T10:37:27.848Z,1.40
2023-03-22T10:39:57.995Z,1.52
2023-03-22T10:42:27.925Z,1.35
2023-03-22T10:44:56.110Z,1.20
2023-03-22T10:47:40.312Z,1.17
2023-03-22T10:50:26.500Z,1.67
2023-03-22T10:53:04.532Z,1.55
2023-03-22T10:55:31.095Z,1.40
2023-03-22T10:58:16.582Z,1.23
2023-03-22T11:00:49.144Z,1.23
2023-03-22T11:03:34.457Z,1.27
2023-03-22T11:06:12.793Z,1.17
2023-03-22T11:08:46.833Z,1.10
2023-03-22T11:11:17.460Z,1.20
2023-03-22T11:13:50.308Z,1.25
2023-03-22T11:16:18.041Z,1.63
2023-03-22T11:18:44.574Z,1.30
2023-03-22T11:21:15.030Z,1.10
2023-03-22T11:23:50.605Z,1.27
2023-03-22T11:29:04.503Z,0.90
2023-03-22T11:31:48.883Z,1.30
2023-03-22T11:34:18.649Z,1.90
2023-03-22T11:36:52.701Z,2.03
2023-03-22T11:39:19.120Z,1.63
2023-03-22T11:41:45.737Z,1.60
2023-03-22T11:44:16.549Z,1.40
2023-03-22T11:46:54.462Z,1.77
2023-03-22T11:49:27.009Z,1.88
2023-03-22T11:51:55.633Z,1.73
2023-03-22T11:54:35.485Z,1.90
2023-03-22T11:57:13.006Z,1.10
2023-03-22T11:59:53.229Z,1.10
2023-03-22T12:02:38.032Z,1.40
2023-03-22T12:05:11.102Z,1.10
2023-03-22T12:07:38.546Z,1.30
2023-03-22T12:10:22.803Z,1.20
2023-03-22T12:12:58.191Z,1.02
2023-03-22T12:15:34.597Z,0.93
2023-03-22T12:18:15.637Z,1.00
2023-03-22T12:20:53.568Z,0.98
2023-03-22T12:23:23.263Z,1.10
2023-03-22T12:26:02.264Z,0.88
2023-03-22T12:28:34.368Z,1.00
2023-03-22T12:31:03.662Z,0.90
2023-03-22T12:33:47.256Z,1.80
2023-03-22T12:36:20.526Z,1.50
2023-03-22T12:38:54.022Z,1.40
2023-03-22T12:41:37.263Z,1.75
2023-03-22T12:44:08.066Z,1.50
2023-03-22T12:46:39.947Z,1.40
2023-03-22T12:49:26.337Z,1.38
2023-03-22T12:51:56.718Z,1.40
2023-03-22T12:54:25.325Z,1.30
2023-03-22T12:56:53.669Z,1.17
2023-03-22T12:59:26.520Z,1.27
2023-03-22T13:02:20.157Z,1.52
2023-03-22T13:04:57.972Z,1.20
2023-03-22T13:07:38.919Z,1.25
2023-03-22T13:10:34.065Z,1.35
2023-03-22T13:13:21.746Z,1.10
2023-03-22T13:15:59.257Z,1.40
2023-03-22T13:18:38.241Z,0.98
2023-03-22T13:21:29.767Z,1.60
2023-03-22T13:24:05.886Z,1.30
2023-03-22T13:26:52.707Z,1.15
2023-03-22T13:29:20.891Z,1.40
2023-03-22T13:31:58.511Z,1.23
2023-03-22T13:34:38.500Z,1.20
2023-03-22T13:37:10.987Z,0.98
2023-03-22T13:39:39.270Z,1.17
2023-03-22T13:42:19.794Z,1.00
2023-03-22T13:44:53.799Z,0.68
2023-03-22T13:47:45.774Z,1.17
2023-03-22T13:50:18.709Z,1.15
2023-03-22T13:53:03.798Z,1.02
2023-03-22T13:55:53.268Z,1.08
2023-03-22T13:58:52.291Z,0.80
2023-03-22T14:01:29.933Z,1.10
2023-03-22T14:04:01.154Z,0.90
2023-03-22T14:06:33.677Z,1.00
2023-03-22T14:09:43.517Z,0.90
2023-03-22T14:12:32.362Z,1.35
2023-03-22T14:15:02.608Z,0.90
2023-03-22T14:17:41.870Z,0.80
2023-03-22T14:20:15.253Z,1.00
